sensor_id;sensor_type;location;lat;lon;timestamp;P1;durP1;ratioP1;P2;durP2;ratioP2
55589;SDS011;41452;42.780;23.116;2024-03-08T00:00:28;5.13;;;2.33;;
55589;SDS011;41452;42.780;23.116;2024-03-08T00:02:54;6.45;;;3.28;;
55589;SDS011;41452;42.780;23.116;2024-03-08T00:05:19;8.70;;;4.22;;
55589;SDS011;41452;42.780;23.116;2024-03-08T00:07:45;6.68;;;3.15;;
55589;SDS011;41452;42.780;23.116;2024-03-08T00:10:11;7.05;;;3.90;;
55589;SDS011;41452;42.780;23.116;2024-03-08T00:12:41;7.75;;;4.18;;
55589;SDS011;41452;42.780;23.116;2024-03-08T00:15:08;12.48;;;5.35;;
55589;SDS011;41452;42.780;23.116;2024-03-08T00:17:35;10.10;;;4.55;;
55589;SDS011;41452;42.780;23.116;2024-03-08T00:20:01;9.90;;;3.83;;
55589;SDS011;41452;42.780;23.116;2024-03-08T00:22:28;5.32;;;3.28;;
55589;SDS011;41452;42.780;23.116;2024-03-08T00:24:55;6.30;;;3.00;;
55589;SDS011;41452;42.780;23.116;2024-03-08T00:27:21;4.88;;;2.70;;
55589;SDS011;41452;42.780;23.116;2024-03-08T00:29:46;6.15;;;2.60;;
55589;SDS011;41452;42.780;23.116;2024-03-08T00:32:12;6.45;;;2.45;;
55589;SDS011;41452;42.780;23.116;2024-03-08T00:34:38;5.07;;;2.45;;
55589;SDS011;41452;42.780;23.116;2024-03-08T00:37:03;4.82;;;2.83;;
55589;SDS011;41452;42.780;23.116;2024-03-08T00:39:29;3.83;;;2.38;;
55589;SDS011;41452;42.780;23.116;2024-03-08T00:41:54;4.15;;;2.33;;
55589;SDS011;41452;42.780;23.116;2024-03-08T00:44:20;6.00;;;2.30;;
55589;SDS011;41452;42.780;23.116;2024-03-08T00:46:45;5.72;;;2.50;;
55589;SDS011;41452;42.780;23.116;2024-03-08T00:49:10;3.72;;;2.45;;
55589;SDS011;41452;42.780;23.116;2024-03-08T00:51:36;5.13;;;3.00;;
55589;SDS011;41452;42.780;23.116;2024-03-08T00:54:02;4.45;;;2.65;;
55589;SDS011;41452;42.780;23.116;2024-03-08T00:56:27;5.07;;;2.42;;
55589;SDS011;41452;42.780;23.116;2024-03-08T00:58:53;4.05;;;2.35;;
55589;SDS011;41452;42.780;23.116;2024-03-08T01:01:19;3.65;;;2.40;;
55589;SDS011;41452;42.780;23.116;2024-03-08T01:03:44;5.43;;;2.65;;
55589;SDS011;41452;42.780;23.116;2024-03-08T01:06:09;6.32;;;2.70;;
55589;SDS011;41452;42.780;23.116;2024-03-08T01:08:36;6.43;;;3.30;;
55589;SDS011;41452;42.780;23.116;2024-03-08T01:11:03;6.65;;;3.50;;
55589;SDS011;41452;42.780;23.116;2024-03-08T01:13:30;8.32;;;3.70;;
55589;SDS011;41452;42.780;23.116;2024-03-08T01:15:55;7.20;;;3.60;;
55589;SDS011;41452;42.780;23.116;2024-03-08T01:18:21;9.98;;;5.00;;
55589;SDS011;41452;42.780;23.116;2024-03-08T01:20:46;10.60;;;5.43;;
55589;SDS011;41452;42.780;23.116;2024-03-08T01:23:12;5.97;;;3.25;;
55589;SDS011;41452;42.780;23.116;2024-03-08T01:25:37;8.00;;;2.78;;
55589;SDS011;41452;42.780;23.116;2024-03-08T01:28:02;4.60;;;2.60;;
55589;SDS011;41452;42.780;23.116;2024-03-08T01:30:28;4.65;;;2.75;;
55589;SDS011;41452;42.780;23.116;2024-03-08T01:32:53;3.58;;;2.33;;
55589;SDS011;41452;42.780;23.116;2024-03-08T01:35:19;4.63;;;2.38;;
55589;SDS011;41452;42.780;23.116;2024-03-08T01:37:46;4.82;;;2.80;;
55589;SDS011;41452;42.780;23.116;2024-03-08T01:40:14;5.65;;;3.03;;
55589;SDS011;41452;42.780;23.116;2024-03-08T01:42:40;4.18;;;2.42;;
55589;SDS011;41452;42.780;23.116;2024-03-08T01:45:06;3.95;;;2.03;;
55589;SDS011;41452;42.780;23.116;2024-03-08T01:47:32;5.50;;;2.67;;
55589;SDS011;41452;42.780;23.116;2024-03-08T01:49:58;5.00;;;2.45;;
55589;SDS011;41452;42.780;23.116;2024-03-08T01:52:26;4.22;;;2.22;;
55589;SDS011;41452;42.780;23.116;2024-03-08T01:54:53;4.30;;;2.17;;
55589;SDS011;41452;42.780;23.116;2024-03-08T01:57:18;4.10;;;2.15;;
55589;SDS011;41452;42.780;23.116;2024-03-08T01:59:44;5.35;;;3.00;;
55589;SDS011;41452;42.780;23.116;2024-03-08T02:02:09;3.92;;;2.28;;
55589;SDS011;41452;42.780;23.116;2024-03-08T02:04:38;4.28;;;2.67;;
55589;SDS011;41452;42.780;23.116;2024-03-08T02:07:04;3.70;;;2.35;;
55589;SDS011;41452;42.780;23.116;2024-03-08T02:09:30;6.05;;;2.75;;
55589;SDS011;41452;42.780;23.116;2024-03-08T02:11:56;4.10;;;2.60;;
55589;SDS011;41452;42.780;23.116;2024-03-08T02:14:22;4.00;;;2.30;;
55589;SDS011;41452;42.780;23.116;2024-03-08T02:16:48;3.08;;;1.92;;
55589;SDS011;41452;42.780;23.116;2024-03-08T02:19:14;4.82;;;2.38;;
55589;SDS011;41452;42.780;23.116;2024-03-08T02:21:39;3.60;;;2.30;;
55589;SDS011;41452;42.780;23.116;2024-03-08T02:24:05;5.45;;;2.85;;
55589;SDS011;41452;42.780;23.116;2024-03-08T02:26:31;8.43;;;2.03;;
55589;SDS011;41452;42.780;23.116;2024-03-08T02:28:56;5.25;;;2.33;;
55589;SDS011;41452;42.780;23.116;2024-03-08T02:31:21;3.20;;;2.13;;
55589;SDS011;41452;42.780;23.116;2024-03-08T02:33:47;6.60;;;2.67;;
55589;SDS011;41452;42.780;23.116;2024-03-08T02:36:13;6.15;;;2.67;;
55589;SDS011;41452;42.780;23.116;2024-03-08T02:38:38;3.85;;;2.20;;
55589;SDS011;41452;42.780;23.116;2024-03-08T02:41:06;3.75;;;2.47;;
55589;SDS011;41452;42.780;23.116;2024-03-08T02:43:33;3.40;;;1.83;;
55589;SDS011;41452;42.780;23.116;2024-03-08T02:45:59;4.40;;;2.25;;
55589;SDS011;41452;42.780;23.116;2024-03-08T02:48:25;3.75;;;2.20;;
55589;SDS011;41452;42.780;23.116;2024-03-08T02:50:50;3.25;;;1.70;;
55589;SDS011;41452;42.780;23.116;2024-03-08T02:53:16;3.67;;;1.73;;
55589;SDS011;41452;42.780;23.116;2024-03-08T02:55:43;3.85;;;2.28;;
55589;SDS011;41452;42.780;23.116;2024-03-08T02:58:09;5.10;;;2.33;;
55589;SDS011;41452;42.780;23.116;2024-03-08T03:00:35;6.43;;;2.15;;
55589;SDS011;41452;42.780;23.116;2024-03-08T03:03:04;3.80;;;2.13;;
55589;SDS011;41452;42.780;23.116;2024-03-08T03:05:31;4.35;;;2.10;;
55589;SDS011;41452;42.780;23.116;2024-03-08T03:07:57;4.93;;;2.17;;
55589;SDS011;41452;42.780;23.116;2024-03-08T03:10:23;3.50;;;2.20;;
55589;SDS011;41452;42.780;23.116;2024-03-08T03:12:49;4.35;;;2.13;;
55589;SDS011;41452;42.780;23.116;2024-03-08T03:15:15;6.43;;;2.90;;
55589;SDS011;41452;42.780;23.116;2024-03-08T03:17:47;4.60;;;2.85;;
55589;SDS011;41452;42.780;23.116;2024-03-08T03:20:16;4.70;;;3.08;;
55589;SDS011;41452;42.780;23.116;2024-03-08T03:22:47;6.15;;;3.85;;
55589;SDS011;41452;42.780;23.116;2024-03-08T03:25:17;5.47;;;2.88;;
55589;SDS011;41452;42.780;23.116;2024-03-08T03:27:50;4.03;;;2.60;;
55589;SDS011;41452;42.780;23.116;2024-03-08T03:30:16;5.07;;;2.40;;
55589;SDS011;41452;42.780;23.116;2024-03-08T03:32:50;4.28;;;2.45;;
55589;SDS011;41452;42.780;23.116;2024-03-08T03:35:19;6.47;;;2.20;;
55589;SDS011;41452;42.780;23.116;2024-03-08T03:37:46;3.90;;;2.35;;
55589;SDS011;41452;42.780;23.116;2024-03-08T03:40:27;3.42;;;2.10;;
55589;SDS011;41452;42.780;23.116;2024-03-08T03:42:53;6.57;;;2.78;;
55589;SDS011;41452;42.780;23.116;2024-03-08T03:45:18;4.70;;;2.58;;
55589;SDS011;41452;42.780;23.116;2024-03-08T03:47:45;5.63;;;2.78;;
55589;SDS011;41452;42.780;23.116;2024-03-08T03:50:11;6.10;;;2.95;;
55589;SDS011;41452;42.780;23.116;2024-03-08T03:52:36;7.15;;;3.28;;
55589;SDS011;41452;42.780;23.116;2024-03-08T03:55:01;7.85;;;3.33;;
55589;SDS011;41452;42.780;23.116;2024-03-08T03:57:29;4.53;;;2.88;;
55589;SDS011;41452;42.780;23.116;2024-03-08T03:59:55;5.97;;;2.67;;
55589;SDS011;41452;42.780;23.116;2024-03-08T04:02:20;6.05;;;2.40;;
55589;SDS011;41452;42.780;23.116;2024-03-08T04:04:46;4.95;;;2.33;;
55589;SDS011;41452;42.780;23.116;2024-03-08T04:07:12;6.25;;;2.78;;
55589;SDS011;41452;42.780;23.116;2024-03-08T04:09:38;4.35;;;2.20;;
55589;SDS011;41452;42.780;23.116;2024-03-08T04:12:04;7.43;;;3.92;;
55589;SDS011;41452;42.780;23.116;2024-03-08T04:14:29;12.57;;;7.05;;
55589;SDS011;41452;42.780;23.116;2024-03-08T04:16:55;13.13;;;6.15;;
55589;SDS011;41452;42.780;23.116;2024-03-08T04:19:20;4.60;;;2.50;;
55589;SDS011;41452;42.780;23.116;2024-03-08T04:21:46;3.00;;;2.10;;
55589;SDS011;41452;42.780;23.116;2024-03-08T04:24:12;4.13;;;2.45;;
55589;SDS011;41452;42.780;23.116;2024-03-08T04:26:37;3.90;;;1.77;;
55589;SDS011;41452;42.780;23.116;2024-03-08T04:29:03;2.60;;;1.88;;
55589;SDS011;41452;42.780;23.116;2024-03-08T04:31:28;3.13;;;2.00;;
55589;SDS011;41452;42.780;23.116;2024-03-08T04:33:56;5.10;;;2.33;;
55589;SDS011;41452;42.780;23.116;2024-03-08T04:36:21;2.80;;;2.25;;
55589;SDS011;41452;42.780;23.116;2024-03-08T04:38:47;4.25;;;2.38;;
55589;SDS011;41452;42.780;23.116;2024-03-08T04:41:12;5.28;;;2.50;;
55589;SDS011;41452;42.780;23.116;2024-03-08T04:43:37;4.15;;;2.30;;
55589;SDS011;41452;42.780;23.116;2024-03-08T04:46:04;4.30;;;2.75;;
55589;SDS011;41452;42.780;23.116;2024-03-08T04:48:30;5.60;;;2.70;;
55589;SDS011;41452;42.780;23.116;2024-03-08T04:50:56;3.95;;;2.58;;
55589;SDS011;41452;42.780;23.116;2024-03-08T04:53:21;5.05;;;2.67;;
55589;SDS011;41452;42.780;23.116;2024-03-08T04:55:46;4.28;;;2.30;;
55589;SDS011;41452;42.780;23.116;2024-03-08T04:58:12;5.28;;;2.15;;
55589;SDS011;41452;42.780;23.116;2024-03-08T05:00:37;4.40;;;1.98;;
55589;SDS011;41452;42.780;23.116;2024-03-08T05:03:03;3.63;;;2.10;;
55589;SDS011;41452;42.780;23.116;2024-03-08T05:05:29;3.65;;;2.20;;
55589;SDS011;41452;42.780;23.116;2024-03-08T05:07:55;3.70;;;2.30;;
55589;SDS011;41452;42.780;23.116;2024-03-08T05:10:21;4.32;;;2.35;;
55589;SDS011;41452;42.780;23.116;2024-03-08T05:12:46;3.53;;;2.22;;
55589;SDS011;41452;42.780;23.116;2024-03-08T05:15:12;5.32;;;2.38;;
55589;SDS011;41452;42.780;23.116;2024-03-08T05:17:38;4.68;;;2.15;;
55589;SDS011;41452;42.780;23.116;2024-03-08T05:20:05;5.65;;;2.28;;
55589;SDS011;41452;42.780;23.116;2024-03-08T05:22:33;5.15;;;3.30;;
55589;SDS011;41452;42.780;23.116;2024-03-08T05:24:58;5.45;;;3.22;;
55589;SDS011;41452;42.780;23.116;2024-03-08T05:27:24;6.53;;;2.55;;
55589;SDS011;41452;42.780;23.116;2024-03-08T05:29:49;4.80;;;2.28;;
55589;SDS011;41452;42.780;23.116;2024-03-08T05:32:14;4.40;;;2.65;;
55589;SDS011;41452;42.780;23.116;2024-03-08T05:34:40;4.45;;;2.40;;
55589;SDS011;41452;42.780;23.116;2024-03-08T05:37:05;4.00;;;2.25;;
55589;SDS011;41452;42.780;23.116;2024-03-08T05:39:32;6.28;;;3.72;;
55589;SDS011;41452;42.780;23.116;2024-03-08T05:41:57;4.95;;;3.10;;
55589;SDS011;41452;42.780;23.116;2024-03-08T05:44:22;5.85;;;3.25;;
55589;SDS011;41452;42.780;23.116;2024-03-08T05:46:48;6.63;;;3.35;;
55589;SDS011;41452;42.780;23.116;2024-03-08T05:49:13;9.18;;;2.92;;
55589;SDS011;41452;42.780;23.116;2024-03-08T05:51:40;5.30;;;2.42;;
55589;SDS011;41452;42.780;23.116;2024-03-08T05:54:14;5.22;;;2.78;;
55589;SDS011;41452;42.780;23.116;2024-03-08T05:56:40;3.08;;;2.28;;
55589;SDS011;41452;42.780;23.116;2024-03-08T05:59:09;4.82;;;2.65;;
55589;SDS011;41452;42.780;23.116;2024-03-08T06:01:35;3.55;;;2.30;;
55589;SDS011;41452;42.780;23.116;2024-03-08T06:04:01;3.58;;;2.50;;
55589;SDS011;41452;42.780;23.116;2024-03-08T06:06:28;5.22;;;3.13;;
55589;SDS011;41452;42.780;23.116;2024-03-08T06:08:54;4.63;;;3.28;;
55589;SDS011;41452;42.780;23.116;2024-03-08T06:11:21;3.40;;;2.15;;
55589;SDS011;41452;42.780;23.116;2024-03-08T06:13:47;3.17;;;2.20;;
55589;SDS011;41452;42.780;23.116;2024-03-08T06:16:14;3.08;;;1.83;;
55589;SDS011;41452;42.780;23.116;2024-03-08T06:18:39;5.00;;;2.55;;
55589;SDS011;41452;42.780;23.116;2024-03-08T06:21:06;3.83;;;2.28;;
55589;SDS011;41452;42.780;23.116;2024-03-08T06:23:32;7.63;;;3.05;;
55589;SDS011;41452;42.780;23.116;2024-03-08T06:25:58;6.43;;;3.20;;
55589;SDS011;41452;42.780;23.116;2024-03-08T06:28:24;5.00;;;2.72;;
55589;SDS011;41452;42.780;23.116;2024-03-08T06:30:49;5.13;;;2.80;;
55589;SDS011;41452;42.780;23.116;2024-03-08T06:33:16;4.13;;;2.83;;
55589;SDS011;41452;42.780;23.116;2024-03-08T06:35:42;5.47;;;2.97;;
55589;SDS011;41452;42.780;23.116;2024-03-08T06:38:07;4.45;;;2.58;;
55589;SDS011;41452;42.780;23.116;2024-03-08T06:40:33;4.60;;;2.70;;
55589;SDS011;41452;42.780;23.116;2024-03-08T06:42:58;5.13;;;2.63;;
55589;SDS011;41452;42.780;23.116;2024-03-08T06:45:23;4.18;;;2.80;;
55589;SDS011;41452;42.780;23.116;2024-03-08T06:47:50;5.95;;;3.05;;
55589;SDS011;41452;42.780;23.116;2024-03-08T06:50:16;4.75;;;2.42;;
55589;SDS011;41452;42.780;23.116;2024-03-08T06:52:41;5.20;;;2.65;;
55589;SDS011;41452;42.780;23.116;2024-03-08T06:55:13;4.28;;;2.15;;
55589;SDS011;41452;42.780;23.116;2024-03-08T06:57:41;6.10;;;3.28;;
55589;SDS011;41452;42.780;23.116;2024-03-08T07:00:07;4.55;;;2.90;;
55589;SDS011;41452;42.780;23.116;2024-03-08T07:02:38;5.25;;;2.38;;
55589;SDS011;41452;42.780;23.116;2024-03-08T07:05:05;6.00;;;3.20;;
55589;SDS011;41452;42.780;23.116;2024-03-08T07:07:31;4.95;;;2.42;;
55589;SDS011;41452;42.780;23.116;2024-03-08T07:09:58;4.75;;;2.83;;
55589;SDS011;41452;42.780;23.116;2024-03-08T07:12:24;5.50;;;3.28;;
55589;SDS011;41452;42.780;23.116;2024-03-08T07:14:49;4.38;;;2.83;;
55589;SDS011;41452;42.780;23.116;2024-03-08T07:17:14;8.20;;;3.17;;
55589;SDS011;41452;42.780;23.116;2024-03-08T07:19:41;8.75;;;2.72;;
55589;SDS011;41452;42.780;23.116;2024-03-08T07:22:07;5.68;;;3.00;;
55589;SDS011;41452;42.780;23.116;2024-03-08T07:24:34;6.70;;;3.42;;
55589;SDS011;41452;42.780;23.116;2024-03-08T07:27:15;4.97;;;2.58;;
55589;SDS011;41452;42.780;23.116;2024-03-08T07:29:41;4.22;;;2.58;;
55589;SDS011;41452;42.780;23.116;2024-03-08T07:32:07;4.63;;;2.70;;
55589;SDS011;41452;42.780;23.116;2024-03-08T07:34:49;7.20;;;3.72;;
55589;SDS011;41452;42.780;23.116;2024-03-08T07:37:18;7.45;;;3.63;;
55589;SDS011;41452;42.780;23.116;2024-03-08T07:39:45;6.00;;;3.22;;
55589;SDS011;41452;42.780;23.116;2024-03-08T07:42:10;5.15;;;3.03;;
55589;SDS011;41452;42.780;23.116;2024-03-08T07:44:36;5.78;;;3.35;;
55589;SDS011;41452;42.780;23.116;2024-03-08T07:47:02;5.00;;;2.85;;
55589;SDS011;41452;42.780;23.116;2024-03-08T07:49:28;7.05;;;3.25;;
55589;SDS011;41452;42.780;23.116;2024-03-08T07:51:55;5.32;;;2.72;;
55589;SDS011;41452;42.780;23.116;2024-03-08T07:54:20;5.18;;;2.30;;
55589;SDS011;41452;42.780;23.116;2024-03-08T07:56:46;5.28;;;2.63;;
55589;SDS011;41452;42.780;23.116;2024-03-08T07:59:11;7.70;;;2.83;;
55589;SDS011;41452;42.780;23.116;2024-03-08T08:01:37;4.18;;;2.47;;
55589;SDS011;41452;42.780;23.116;2024-03-08T08:04:03;5.90;;;2.80;;
55589;SDS011;41452;42.780;23.116;2024-03-08T08:06:28;3.58;;;2.35;;
55589;SDS011;41452;42.780;23.116;2024-03-08T08:08:56;3.40;;;2.53;;
55589;SDS011;41452;42.780;23.116;2024-03-08T08:11:22;4.60;;;2.33;;
55589;SDS011;41452;42.780;23.116;2024-03-08T08:13:47;4.55;;;2.30;;
55589;SDS011;41452;42.780;23.116;2024-03-08T08:16:13;4.35;;;2.20;;
55589;SDS011;41452;42.780;23.116;2024-03-08T08:18:38;3.33;;;1.90;;
55589;SDS011;41452;42.780;23.116;2024-03-08T08:21:04;4.28;;;2.05;;
55589;SDS011;41452;42.780;23.116;2024-03-08T08:23:31;5.82;;;2.60;;
55589;SDS011;41452;42.780;23.116;2024-03-08T08:25:58;4.00;;;2.40;;
55589;SDS011;41452;42.780;23.116;2024-03-08T08:28:24;4.97;;;2.67;;
55589;SDS011;41452;42.780;23.116;2024-03-08T08:30:49;4.45;;;2.72;;
55589;SDS011;41452;42.780;23.116;2024-03-08T08:33:15;6.45;;;2.70;;
55589;SDS011;41452;42.780;23.116;2024-03-08T08:35:40;5.20;;;3.10;;
55589;SDS011;41452;42.780;23.116;2024-03-08T08:38:06;5.10;;;2.72;;
55589;SDS011;41452;42.780;23.116;2024-03-08T08:40:35;6.60;;;3.17;;
55589;SDS011;41452;42.780;23.116;2024-03-08T08:43:01;4.32;;;2.85;;
55589;SDS011;41452;42.780;23.116;2024-03-08T08:45:29;4.53;;;2.33;;
55589;SDS011;41452;42.780;23.116;2024-03-08T08:47:55;4.75;;;2.75;;
55589;SDS011;41452;42.780;23.116;2024-03-08T08:50:21;4.28;;;2.72;;
55589;SDS011;41452;42.780;23.116;2024-03-08T08:52:50;4.63;;;2.67;;
55589;SDS011;41452;42.780;23.116;2024-03-08T08:55:16;4.28;;;2.40;;
55589;SDS011;41452;42.780;23.116;2024-03-08T08:57:45;3.90;;;2.63;;
55589;SDS011;41452;42.780;23.116;2024-03-08T09:00:12;5.63;;;2.42;;
55589;SDS011;41452;42.780;23.116;2024-03-08T09:02:40;4.13;;;2.42;;
55589;SDS011;41452;42.780;23.116;2024-03-08T09:05:06;3.92;;;2.35;;
55589;SDS011;41452;42.780;23.116;2024-03-08T09:07:36;4.07;;;2.30;;
55589;SDS011;41452;42.780;23.116;2024-03-08T09:10:02;5.03;;;2.10;;
55589;SDS011;41452;42.780;23.116;2024-03-08T09:12:28;4.20;;;2.10;;
55589;SDS011;41452;42.780;23.116;2024-03-08T09:14:53;3.05;;;1.83;;
55589;SDS011;41452;42.780;23.116;2024-03-08T09:17:19;4.50;;;2.30;;
55589;SDS011;41452;42.780;23.116;2024-03-08T09:19:49;3.92;;;1.92;;
55589;SDS011;41452;42.780;23.116;2024-03-08T09:22:15;3.42;;;1.80;;
55589;SDS011;41452;42.780;23.116;2024-03-08T09:24:40;5.10;;;2.47;;
55589;SDS011;41452;42.780;23.116;2024-03-08T09:27:08;3.53;;;2.20;;
55589;SDS011;41452;42.780;23.116;2024-03-08T09:29:34;3.20;;;1.63;;
55589;SDS011;41452;42.780;23.116;2024-03-08T09:32:00;4.00;;;1.98;;
55589;SDS011;41452;42.780;23.116;2024-03-08T09:34:25;5.25;;;2.67;;
55589;SDS011;41452;42.780;23.116;2024-03-08T09:36:51;3.40;;;2.05;;
55589;SDS011;41452;42.780;23.116;2024-03-08T09:39:17;4.13;;;2.28;;
55589;SDS011;41452;42.780;23.116;2024-03-08T09:41:43;3.17;;;1.95;;
55589;SDS011;41452;42.780;23.116;2024-03-08T09:44:10;3.42;;;2.40;;
55589;SDS011;41452;42.780;23.116;2024-03-08T09:46:36;4.47;;;2.17;;
55589;SDS011;41452;42.780;23.116;2024-03-08T09:49:01;5.15;;;2.45;;
55589;SDS011;41452;42.780;23.116;2024-03-08T09:51:29;4.78;;;2.58;;
55589;SDS011;41452;42.780;23.116;2024-03-08T09:53:58;4.75;;;2.10;;
55589;SDS011;41452;42.780;23.116;2024-03-08T09:56:24;4.20;;;2.42;;
55589;SDS011;41452;42.780;23.116;2024-03-08T09:58:50;5.28;;;2.13;;
55589;SDS011;41452;42.780;23.116;2024-03-08T10:01:30;4.38;;;2.65;;
55589;SDS011;41452;42.780;23.116;2024-03-08T10:03:56;3.17;;;2.10;;
55589;SDS011;41452;42.780;23.116;2024-03-08T10:06:23;3.88;;;2.20;;
55589;SDS011;41452;42.780;23.116;2024-03-08T10:08:49;3.45;;;2.10;;
55589;SDS011;41452;42.780;23.116;2024-03-08T10:11:17;3.45;;;2.00;;
55589;SDS011;41452;42.780;23.116;2024-03-08T10:13:42;5.43;;;2.20;;
55589;SDS011;41452;42.780;23.116;2024-03-08T10:16:11;3.15;;;2.10;;
55589;SDS011;41452;42.780;23.116;2024-03-08T10:18:37;2.95;;;1.58;;
55589;SDS011;41452;42.780;23.116;2024-03-08T10:21:03;5.80;;;3.03;;
55589;SDS011;41452;42.780;23.116;2024-03-08T10:23:33;4.25;;;2.35;;
55589;SDS011;41452;42.780;23.116;2024-03-08T10:26:11;3.97;;;1.80;;
55589;SDS011;41452;42.780;23.116;2024-03-08T10:28:51;3.70;;;2.05;;
55589;SDS011;41452;42.780;23.116;2024-03-08T10:31:18;4.07;;;2.10;;
55589;SDS011;41452;42.780;23.116;2024-03-08T10:33:44;5.88;;;2.05;;
55589;SDS011;41452;42.780;23.116;2024-03-08T10:36:14;3.35;;;2.10;;
55589;SDS011;41452;42.780;23.116;2024-03-08T10:38:40;4.10;;;2.00;;
55589;SDS011;41452;42.780;23.116;2024-03-08T10:41:08;5.13;;;1.48;;
55589;SDS011;41452;42.780;23.116;2024-03-08T10:43:43;2.75;;;1.63;;
55589;SDS011;41452;42.780;23.116;2024-03-08T10:49:00;4.18;;;1.85;;
55589;SDS011;41452;42.780;23.116;2024-03-08T10:51:30;3.42;;;1.95;;
55589;SDS011;41452;42.780;23.116;2024-03-08T10:53:57;3.42;;;1.60;;
55589;SDS011;41452;42.780;23.116;2024-03-08T10:56:24;3.67;;;2.00;;
55589;SDS011;41452;42.780;23.116;2024-03-08T10:58:52;2.95;;;1.70;;
55589;SDS011;41452;42.780;23.116;2024-03-08T11:01:19;7.55;;;1.92;;
55589;SDS011;41452;42.780;23.116;2024-03-08T11:03:45;3.72;;;1.88;;
55589;SDS011;41452;42.780;23.116;2024-03-08T11:06:29;2.22;;;1.60;;
55589;SDS011;41452;42.780;23.116;2024-03-08T11:08:56;3.90;;;1.80;;
55589;SDS011;41452;42.780;23.116;2024-03-08T11:13:59;2.45;;;1.45;;
55589;SDS011;41452;42.780;23.116;2024-03-08T11:18:57;2.30;;;1.45;;
55589;SDS011;41452;42.780;23.116;2024-03-08T11:21:32;3.17;;;1.70;;
55589;SDS011;41452;42.780;23.116;2024-03-08T11:24:07;2.40;;;1.50;;
55589;SDS011;41452;42.780;23.116;2024-03-08T11:26:34;4.78;;;1.83;;
55589;SDS011;41452;42.780;23.116;2024-03-08T11:32:09;2.50;;;1.45;;
55589;SDS011;41452;42.780;23.116;2024-03-08T11:34:43;3.50;;;1.90;;
55589;SDS011;41452;42.780;23.116;2024-03-08T11:37:17;4.07;;;2.35;;
55589;SDS011;41452;42.780;23.116;2024-03-08T11:39:49;2.08;;;1.35;;
55589;SDS011;41452;42.780;23.116;2024-03-08T11:42:16;2.92;;;1.65;;
55589;SDS011;41452;42.780;23.116;2024-03-08T11:44:48;2.70;;;1.75;;
55589;SDS011;41452;42.780;23.116;2024-03-08T11:47:15;2.80;;;1.50;;
55589;SDS011;41452;42.780;23.116;2024-03-08T11:49:41;2.60;;;1.52;;
55589;SDS011;41452;42.780;23.116;2024-03-08T11:52:12;2.50;;;1.52;;
55589;SDS011;41452;42.780;23.116;2024-03-08T11:54:39;2.60;;;1.70;;
55589;SDS011;41452;42.780;23.116;2024-03-08T11:57:05;2.78;;;1.73;;
55589;SDS011;41452;42.780;23.116;2024-03-08T11:59:31;3.70;;;1.70;;
55589;SDS011;41452;42.780;23.116;2024-03-08T12:02:07;2.65;;;1.70;;
55589;SDS011;41452;42.780;23.116;2024-03-08T12:04:36;2.40;;;1.50;;
55589;SDS011;41452;42.780;23.116;2024-03-08T12:07:02;4.18;;;1.60;;
55589;SDS011;41452;42.780;23.116;2024-03-08T12:09:30;2.17;;;1.50;;
55589;SDS011;41452;42.780;23.116;2024-03-08T12:11:57;2.33;;;1.45;;
55589;SDS011;41452;42.780;23.116;2024-03-08T12:14:24;3.03;;;1.77;;
55589;SDS011;41452;42.780;23.116;2024-03-08T12:16:50;2.67;;;1.48;;
55589;SDS011;41452;42.780;23.116;2024-03-08T12:19:16;2.60;;;1.33;;
55589;SDS011;41452;42.780;23.116;2024-03-08T12:21:42;2.47;;;1.52;;
55589;SDS011;41452;42.780;23.116;2024-03-08T12:24:13;3.72;;;1.30;;
55589;SDS011;41452;42.780;23.116;2024-03-08T12:26:44;3.03;;;1.58;;
55589;SDS011;41452;42.780;23.116;2024-03-08T12:29:20;5.65;;;1.58;;
55589;SDS011;41452;42.780;23.116;2024-03-08T12:31:55;2.60;;;1.48;;
55589;SDS011;41452;42.780;23.116;2024-03-08T12:34:25;3.33;;;1.50;;
55589;SDS011;41452;42.780;23.116;2024-03-08T12:36:52;2.30;;;1.33;;
55589;SDS011;41452;42.780;23.116;2024-03-08T12:39:19;7.97;;;1.58;;
55589;SDS011;41452;42.780;23.116;2024-03-08T12:41:51;2.10;;;1.30;;
55589;SDS011;41452;42.780;23.116;2024-03-08T12:44:22;2.83;;;1.50;;
55589;SDS011;41452;42.780;23.116;2024-03-08T12:46:47;7.47;;;1.70;;
55589;SDS011;41452;42.780;23.116;2024-03-08T12:49:13;3.85;;;1.50;;
55589;SDS011;41452;42.780;23.116;2024-03-08T12:51:43;4.00;;;1.77;;
55589;SDS011;41452;42.780;23.116;2024-03-08T12:54:10;3.40;;;1.45;;
55589;SDS011;41452;42.780;23.116;2024-03-08T12:56:35;2.67;;;1.52;;
55589;SDS011;41452;42.780;23.116;2024-03-08T12:59:02;3.95;;;1.30;;
55589;SDS011;41452;42.780;23.116;2024-03-08T13:01:35;2.38;;;1.20;;
55589;SDS011;41452;42.780;23.116;2024-03-08T13:04:04;4.35;;;1.30;;
55589;SDS011;41452;42.780;23.116;2024-03-08T13:06:31;2.45;;;1.38;;
55589;SDS011;41452;42.780;23.116;2024-03-08T13:08:57;2.28;;;1.33;;
55589;SDS011;41452;42.780;23.116;2024-03-08T13:11:23;2.78;;;1.50;;
55589;SDS011;41452;42.780;23.116;2024-03-08T13:13:53;2.13;;;1.65;;
55589;SDS011;41452;42.780;23.116;2024-03-08T13:16:18;3.28;;;1.80;;
55589;SDS011;41452;42.780;23.116;2024-03-08T13:18:44;2.85;;;1.50;;
55589;SDS011;41452;42.780;23.116;2024-03-08T13:21:10;2.45;;;1.42;;
55589;SDS011;41452;42.780;23.116;2024-03-08T13:23:38;1.55;;;1.10;;
55589;SDS011;41452;42.780;23.116;2024-03-08T13:26:06;2.15;;;1.30;;
55589;SDS011;41452;42.780;23.116;2024-03-08T13:28:32;2.25;;;1.33;;
55589;SDS011;41452;42.780;23.116;2024-03-08T13:31:02;2.97;;;1.75;;
55589;SDS011;41452;42.780;23.116;2024-03-08T13:33:37;2.25;;;1.40;;
55589;SDS011;41452;42.780;23.116;2024-03-08T13:36:05;3.47;;;1.52;;
55589;SDS011;41452;42.780;23.116;2024-03-08T13:38:32;2.20;;;1.45;;
55589;SDS011;41452;42.780;23.116;2024-03-08T13:41:01;2.85;;;1.35;;
55589;SDS011;41452;42.780;23.116;2024-03-08T13:43:27;3.03;;;1.50;;
55589;SDS011;41452;42.780;23.116;2024-03-08T13:45:54;1.77;;;1.20;;
55589;SDS011;41452;42.780;23.116;2024-03-08T13:48:20;2.40;;;1.50;;
55589;SDS011;41452;42.780;23.116;2024-03-08T13:50:47;2.35;;;1.52;;
55589;SDS011;41452;42.780;23.116;2024-03-08T13:53:13;1.90;;;1.20;;
55589;SDS011;41452;42.780;23.116;2024-03-08T13:55:38;2.70;;;1.70;;
55589;SDS011;41452;42.780;23.116;2024-03-08T13:58:04;3.08;;;1.98;;
55589;SDS011;41452;42.780;23.116;2024-03-08T14:00:29;2.78;;;1.63;;
55589;SDS011;41452;42.780;23.116;2024-03-08T14:02:58;2.92;;;1.70;;
55589;SDS011;41452;42.780;23.116;2024-03-08T14:05:24;3.15;;;1.75;;
55589;SDS011;41452;42.780;23.116;2024-03-08T14:07:49;1.92;;;1.40;;
55589;SDS011;41452;42.780;23.116;2024-03-08T14:10:15;3.67;;;2.40;;
55589;SDS011;41452;42.780;23.116;2024-03-08T14:12:40;3.42;;;2.00;;
55589;SDS011;41452;42.780;23.116;2024-03-08T14:15:08;3.75;;;2.08;;
55589;SDS011;41452;42.780;23.116;2024-03-08T14:17:34;3.30;;;1.88;;
55589;SDS011;41452;42.780;23.116;2024-03-08T14:20:00;5.72;;;1.75;;
55589;SDS011;41452;42.780;23.116;2024-03-08T14:22:26;2.85;;;1.88;;
55589;SDS011;41452;42.780;23.116;2024-03-08T14:24:51;3.53;;;1.90;;
55589;SDS011;41452;42.780;23.116;2024-03-08T14:27:17;3.10;;;1.58;;
55589;SDS011;41452;42.780;23.116;2024-03-08T14:29:43;2.33;;;1.60;;
55589;SDS011;41452;42.780;23.116;2024-03-08T14:32:09;3.20;;;1.55;;
55589;SDS011;41452;42.780;23.116;2024-03-08T14:34:35;4.50;;;1.75;;
55589;SDS011;41452;42.780;23.116;2024-03-08T14:37:00;5.00;;;1.95;;
55589;SDS011;41452;42.780;23.116;2024-03-08T14:39:30;3.17;;;1.65;;
55589;SDS011;41452;42.780;23.116;2024-03-08T14:41:58;3.70;;;1.88;;